Powell Butte, Oregon
Current Conditions -  °F | °C
As of 9:55 AM on Monday 24 Nov 2014 (Local Time) from KS39 Reporting Station
Clear Clear  
Wind Chill: 36°   Ceiling: Unl
Heat Index: 39°   Visibility: 10mi
Dew Point: 32°   Wind: 5mph
Humidity: 75%   Direction: 140°SE
Pressure: 30.4"   Gusts: NA
Location:  44.25°N, 121.02°W
Report Text: KS39 241755Z AUTO 14004KT 10SM CLR 04/M00 A3040 RMK AO2
Loading
Personal Weather Stations






























Interactive Weather Map New forecast layout! Learn more

10-Day Weather Forecast

Advertisements
Track Severe Weather on mobile